createdAt,value
2018-01-03T00:01:31.440Z,88.00
2018-01-03T00:03:59.795Z,88.20
2018-01-03T00:06:27.424Z,88.20
2018-01-03T00:08:55.039Z,88.10
2018-01-03T00:11:22.618Z,88.30
2018-01-03T00:13:50.181Z,88.20
2018-01-03T00:16:17.737Z,88.50
2018-01-03T00:18:45.370Z,88.70
2018-01-03T00:21:12.998Z,89.10
2018-01-03T00:23:40.598Z,89.20
2018-01-03T00:26:08.233Z,89.60
2018-01-03T00:28:35.835Z,90.10
2018-01-03T00:31:04.244Z,90.90
2018-01-03T00:33:31.864Z,91.40
2018-01-03T00:35:59.488Z,91.60
2018-01-03T00:38:27.087Z,91.70
2018-01-03T00:40:54.695Z,91.90
2018-01-03T00:43:22.332Z,91.90
2018-01-03T00:45:50.038Z,91.90
2018-01-03T00:48:17.652Z,92.10
2018-01-03T00:50:45.271Z,91.90
2018-01-03T00:53:13.648Z,91.80
2018-01-03T00:55:41.279Z,91.80
2018-01-03T00:58:08.920Z,91.70
2018-01-03T01:00:36.506Z,91.70
2018-01-03T01:03:04.059Z,91.60
2018-01-03T01:05:31.642Z,91.40
2018-01-03T01:07:59.244Z,91.30
2018-01-03T01:10:26.849Z,91.20
2018-01-03T01:12:54.447Z,91.10
2018-01-03T01:15:22.065Z,91.00
2018-01-03T01:17:49.712Z,90.80
2018-01-03T01:20:17.227Z,90.80
2018-01-03T01:22:44.783Z,90.80
2018-01-03T01:25:13.126Z,91.30
2018-01-03T01:27:40.703Z,91.30
2018-01-03T01:30:08.349Z,91.50
2018-01-03T01:32:35.916Z,91.40
2018-01-03T01:35:03.469Z,91.20
2018-01-03T01:37:31.042Z,91.10
2018-01-03T01:39:58.605Z,90.80
2018-01-03T01:42:27.867Z,90.90
2018-01-03T01:44:55.399Z,90.70
2018-01-03T01:47:24.659Z,90.60
2018-01-03T01:49:52.933Z,91.10
2018-01-03T01:52:20.577Z,90.90
2018-01-03T01:54:48.191Z,90.90
2018-01-03T01:57:15.784Z,90.90
2018-01-03T01:59:43.427Z,90.90
2018-01-03T02:02:10.986Z,90.70
2018-01-03T02:04:38.562Z,90.80
2018-01-03T02:07:06.093Z,90.90
2018-01-03T02:09:33.671Z,91.00
2018-01-03T02:12:01.199Z,91.10
2018-01-03T02:14:28.893Z,91.10
2018-01-03T02:16:56.433Z,91.00
2018-01-03T02:19:23.986Z,91.10
2018-01-03T02:21:51.520Z,91.00
2018-01-03T02:24:19.867Z,91.20
2018-01-03T02:26:58.471Z,91.20
2018-01-03T02:29:25.996Z,91.20
2018-01-03T02:31:53.508Z,91.30
2018-01-03T02:34:21.052Z,91.40
2018-01-03T02:36:48.559Z,91.40
2018-01-03T02:39:17.213Z,91.50
2018-01-03T02:41:44.854Z,91.50
2018-01-03T02:44:12.387Z,91.60
2018-01-03T02:46:40.708Z,91.60
2018-01-03T02:49:08.248Z,91.70
2018-01-03T02:51:35.755Z,91.80
2018-01-03T02:54:04.060Z,91.90
2018-01-03T02:56:31.601Z,91.80
2018-01-03T02:58:59.111Z,92.00
2018-01-03T03:01:26.630Z,91.60
2018-01-03T03:03:54.157Z,91.70
2018-01-03T03:06:21.718Z,91.60
2018-01-03T03:08:49.232Z,91.80
2018-01-03T03:11:16.788Z,91.60
2018-01-03T03:13:44.357Z,91.70
2018-01-03T03:16:11.875Z,91.70
2018-01-03T03:18:40.185Z,92.00
2018-01-03T03:21:07.756Z,92.00
2018-01-03T03:23:35.262Z,92.30
2018-01-03T03:26:02.815Z,92.40
2018-01-03T03:28:31.156Z,92.20
2018-01-03T03:30:58.665Z,92.50
2018-01-03T03:33:27.027Z,92.30
2018-01-03T03:35:54.555Z,92.30
2018-01-03T03:38:22.085Z,92.40
2018-01-03T03:40:49.617Z,92.20
2018-01-03T03:43:17.123Z,92.10
2018-01-03T03:45:44.659Z,91.90
2018-01-03T03:48:12.166Z,91.80
2018-01-03T03:50:39.716Z,91.50
2018-01-03T03:53:07.255Z,91.50
2018-01-03T03:55:34.878Z,91.70
2018-01-03T03:58:02.414Z,92.00
2018-01-03T04:00:30.775Z,91.60
2018-01-03T04:02:58.334Z,91.60
2018-01-03T04:05:25.884Z,91.50
2018-01-03T04:07:53.501Z,91.20
2018-01-03T04:10:21.032Z,91.00
2018-01-03T04:12:49.316Z,91.00
2018-01-03T04:15:17.655Z,91.70
2018-01-03T04:17:45.264Z,91.70
2018-01-03T04:20:12.808Z,91.60
2018-01-03T04:22:41.155Z,91.60
2018-01-03T04:25:08.685Z,91.50
2018-01-03T04:27:36.260Z,91.60
2018-01-03T04:30:03.840Z,91.90
2018-01-03T04:32:31.428Z,92.30
2018-01-03T04:34:59.759Z,92.90
2018-01-03T04:37:27.373Z,92.90
2018-01-03T04:39:54.880Z,93.30
2018-01-03T04:42:22.471Z,93.80
2018-01-03T04:44:50.066Z,94.40
2018-01-03T04:47:17.667Z,95.50
2018-01-03T04:49:45.333Z,96.40
2018-01-03T04:52:12.846Z,96.90
2018-01-03T04:54:40.366Z,97.00
2018-01-03T04:57:08.688Z,97.00
2018-01-03T04:59:36.240Z,97.00
2018-01-03T05:02:03.770Z,97.20
2018-01-03T05:04:31.275Z,97.20
2018-01-03T05:06:58.868Z,97.40
2018-01-03T05:09:26.385Z,97.50
2018-01-03T05:11:53.932Z,97.60
2018-01-03T05:14:21.439Z,97.30
2018-01-03T05:16:48.963Z,97.10
2018-01-03T05:19:16.519Z,97.10
2018-01-03T05:21:44.039Z,97.00
2018-01-03T05:24:11.557Z,97.20
2018-01-03T05:26:39.057Z,97.30
2018-01-03T05:29:07.363Z,97.30
2018-01-03T05:31:34.872Z,97.30
2018-01-03T05:34:02.392Z,97.20
2018-01-03T05:36:29.923Z,96.80
2018-01-03T05:38:58.200Z,96.30
2018-01-03T05:41:25.764Z,96.30
2018-01-03T05:43:53.280Z,96.20
2018-01-03T05:46:20.827Z,95.80
2018-01-03T05:48:48.331Z,95.70
2018-01-03T05:51:16.594Z,95.50
2018-01-03T05:53:44.912Z,95.50
2018-01-03T05:56:12.438Z,95.60
2018-01-03T05:58:40.731Z,96.50
2018-01-03T06:01:08.270Z,96.20
2018-01-03T06:03:35.749Z,96.30
2018-01-03T06:06:03.330Z,96.70
2018-01-03T06:08:30.834Z,97.20
2018-01-03T06:10:58.360Z,97.40
2018-01-03T06:13:25.874Z,97.90
2018-01-03T06:15:54.139Z,97.40
2018-01-03T06:18:22.482Z,97.00
2018-01-03T06:20:50.027Z,97.00
2018-01-03T06:23:17.532Z,96.90
2018-01-03T06:25:45.822Z,96.90
2018-01-03T06:28:13.343Z,97.20
2018-01-03T06:30:40.876Z,97.00
2018-01-03T06:33:08.399Z,96.80
2018-01-03T06:35:36.683Z,97.30
2018-01-03T06:38:04.187Z,97.30
2018-01-03T06:40:31.849Z,97.20
2018-01-03T06:42:59.375Z,97.50
2018-01-03T06:45:26.885Z,97.50
2018-01-03T06:47:54.426Z,97.40
2018-01-03T06:50:21.926Z,97.60
2018-01-03T06:52:50.252Z,98.00
2018-01-03T06:55:17.759Z,98.00
2018-01-03T06:57:46.093Z,97.00
2018-01-03T07:00:13.590Z,97.00
2018-01-03T07:02:41.860Z,95.20
2018-01-03T07:05:09.395Z,95.20
2018-01-03T07:07:36.896Z,94.80
2018-01-03T07:10:04.459Z,92.40
2018-01-03T07:12:31.967Z,92.30
2018-01-03T07:14:59.534Z,93.40
2018-01-03T07:17:27.031Z,94.50
2018-01-03T07:19:54.532Z,95.90
2018-01-03T07:22:22.068Z,95.60
2018-01-03T07:24:49.635Z,95.50
2018-01-03T07:27:17.183Z,95.60
2018-01-03T07:29:44.699Z,95.70
2018-01-03T07:32:13.009Z,95.30
2018-01-03T07:34:40.515Z,95.30
2018-01-03T07:37:08.039Z,95.60
2018-01-03T07:39:35.562Z,96.00
2018-01-03T07:42:03.124Z,96.10
2018-01-03T07:44:30.646Z,96.50
2018-01-03T07:46:58.173Z,96.70
2018-01-03T07:49:25.702Z,96.50
2018-01-03T07:51:53.279Z,96.00
2018-01-03T07:54:20.814Z,95.60
2018-01-03T07:56:48.340Z,95.70
2018-01-03T07:59:15.858Z,95.70
2018-01-03T08:01:43.372Z,95.50
2018-01-03T08:04:11.687Z,95.70
2018-01-03T08:06:40.008Z,95.70
2018-01-03T08:09:07.569Z,95.20
2018-01-03T08:11:35.116Z,95.40
2018-01-03T08:14:02.620Z,94.60
2018-01-03T08:16:30.951Z,94.10
2018-01-03T08:18:58.456Z,94.00
2018-01-03T08:21:26.754Z,94.50
2018-01-03T08:23:54.294Z,94.40
2018-01-03T08:26:21.838Z,94.80
2018-01-03T08:28:49.352Z,94.70
2018-01-03T08:31:16.921Z,94.60
2018-01-03T08:33:44.432Z,94.80
2018-01-03T08:36:12.226Z,95.10
2018-01-03T08:38:39.775Z,95.30
2018-01-03T08:41:07.316Z,95.10
2018-01-03T08:43:35.578Z,95.40
2018-01-03T08:46:03.138Z,95.20
2018-01-03T08:48:31.420Z,95.00
2018-01-03T08:50:59.719Z,94.50
2018-01-03T08:53:27.268Z,94.50
2018-01-03T08:55:54.986Z,92.60
2018-01-03T08:58:22.493Z,92.60
2018-01-03T09:00:50.053Z,93.00
2018-01-03T09:03:17.567Z,92.10
2018-01-03T09:05:45.125Z,92.60
2018-01-03T09:08:12.644Z,92.30
2018-01-03T09:10:40.164Z,91.80
2018-01-03T09:13:07.716Z,91.10
2018-01-03T09:15:35.984Z,91.50
2018-01-03T09:18:03.512Z,91.50
2018-01-03T09:20:31.026Z,91.40
2018-01-03T09:22:58.573Z,91.30
2018-01-03T09:25:26.904Z,92.00
2018-01-03T09:27:54.469Z,92.00
2018-01-03T09:30:21.958Z,92.00
2018-01-03T09:32:50.280Z,92.90
2018-01-03T09:35:17.856Z,92.90
2018-01-03T09:37:45.387Z,92.60
2018-01-03T09:40:12.910Z,92.60
2018-01-03T09:42:40.434Z,93.00
2018-01-03T09:45:07.959Z,92.50
2018-01-03T09:47:35.501Z,92.60
2018-01-03T09:50:03.784Z,92.40
2018-01-03T09:52:32.076Z,92.80
2018-01-03T09:54:59.629Z,92.80
2018-01-03T09:57:27.191Z,92.60
2018-01-03T09:59:54.700Z,92.90
2018-01-03T10:02:22.249Z,92.30
2018-01-03T10:04:49.785Z,91.60
2018-01-03T10:07:17.296Z,92.10
2018-01-03T10:09:44.872Z,92.30
2018-01-03T10:12:13.169Z,92.20
2018-01-03T10:14:40.724Z,92.20
2018-01-03T10:17:08.262Z,92.20
2018-01-03T10:19:35.771Z,92.20
2018-01-03T10:22:03.315Z,91.50
2018-01-03T10:24:30.825Z,90.40
2018-01-03T10:26:58.380Z,90.30
2018-01-03T10:29:25.925Z,89.40
2018-01-03T10:31:53.501Z,90.10
2018-01-03T10:34:21.625Z,90.00
2018-01-03T10:36:49.151Z,90.40
2018-01-03T10:39:16.685Z,90.50
2018-01-03T10:41:44.596Z,90.90
2018-01-03T10:44:12.123Z,90.10
2018-01-03T10:46:40.480Z,89.30
2018-01-03T10:49:08.058Z,90.00
2018-01-03T10:51:35.570Z,90.00
2018-01-03T10:54:03.072Z,88.90
2018-01-03T10:56:30.630Z,89.00
2018-01-03T10:58:58.172Z,90.10
2018-01-03T11:01:25.704Z,89.90
2018-01-03T11:03:53.270Z,89.90
2018-01-03T11:06:20.812Z,90.20
2018-01-03T11:08:48.373Z,90.00
2018-01-03T11:11:15.930Z,90.10
2018-01-03T11:13:43.487Z,90.50
2018-01-03T11:16:11.001Z,90.60
2018-01-03T11:18:38.606Z,90.10
2018-01-03T11:21:06.903Z,90.00
2018-01-03T11:23:34.425Z,89.90
2018-01-03T11:26:02.023Z,87.90
2018-01-03T11:28:29.523Z,87.70
2018-01-03T11:30:57.850Z,86.10
2018-01-03T11:33:25.415Z,86.10
2018-01-03T11:35:52.940Z,84.80
2018-01-03T11:38:20.480Z,85.30
2018-01-03T11:40:48.016Z,83.70
2018-01-03T11:43:16.320Z,83.40
2018-01-03T11:45:43.945Z,83.40
2018-01-03T11:48:11.507Z,82.90
2018-01-03T11:50:39.138Z,84.30
2018-01-03T11:53:06.667Z,84.20
2018-01-03T11:55:34.969Z,82.00
2018-01-03T11:58:02.610Z,82.00
2018-01-03T12:00:31.949Z,83.00
2018-01-03T12:02:59.444Z,84.60
2018-01-03T12:05:26.980Z,84.70
2018-01-03T12:07:54.558Z,84.90
2018-01-03T12:10:22.095Z,85.30
2018-01-03T12:12:49.619Z,86.20
2018-01-03T12:15:17.224Z,86.10
2018-01-03T12:17:44.758Z,87.40
2018-01-03T12:20:12.273Z,89.00
2018-01-03T12:22:39.808Z,90.20
2018-01-03T12:25:07.344Z,90.60
2018-01-03T12:27:34.857Z,90.80
2018-01-03T12:30:02.411Z,91.00
2018-01-03T12:32:30.746Z,90.50
2018-01-03T12:34:58.257Z,90.50
2018-01-03T12:37:25.815Z,90.20
2018-01-03T12:39:53.347Z,89.90
2018-01-03T12:42:21.650Z,88.20
2018-01-03T12:44:49.153Z,88.10
2018-01-03T12:47:16.730Z,88.20
2018-01-03T12:49:44.299Z,87.60
2018-01-03T12:52:11.796Z,87.80
2018-01-03T12:54:39.355Z,88.30
2018-01-03T12:57:06.888Z,89.20
2018-01-03T12:59:34.503Z,90.40
2018-01-03T13:02:02.048Z,91.50
2018-01-03T13:04:29.575Z,91.90
2018-01-03T13:06:57.124Z,91.70
2018-01-03T13:09:25.410Z,90.40
2018-01-03T13:11:52.980Z,90.40
2018-01-03T13:14:20.491Z,90.10
2018-01-03T13:16:48.004Z,89.60
2018-01-03T13:19:15.544Z,88.20
2018-01-03T13:21:43.851Z,86.60
2018-01-03T13:24:11.361Z,86.60
2018-01-03T13:26:39.662Z,85.30
2018-01-03T13:29:07.206Z,85.30
2018-01-03T13:31:35.491Z,81.50
2018-01-03T13:34:05.476Z,81.60
2018-01-03T13:36:32.996Z,79.60
2018-01-03T13:39:00.532Z,79.80
2018-01-03T13:41:28.093Z,79.80
2018-01-03T13:43:55.659Z,79.10
2018-01-03T13:46:23.192Z,79.20
2018-01-03T13:48:51.502Z,76.50
2018-01-03T13:51:19.075Z,76.50
2018-01-03T13:53:46.629Z,76.40
2018-01-03T13:56:14.176Z,76.00
2018-01-03T13:58:41.716Z,75.10
2018-01-03T14:01:10.044Z,73.80
2018-01-03T14:03:37.598Z,73.80
2018-01-03T14:06:05.109Z,74.70
2018-01-03T14:08:32.679Z,74.20
2018-01-03T14:11:00.224Z,73.60
2018-01-03T14:13:28.559Z,72.20
2018-01-03T14:15:56.115Z,72.20
2018-01-03T14:18:23.688Z,74.70
2018-01-03T14:20:51.203Z,72.90
2018-01-03T14:23:18.737Z,73.30
2018-01-03T14:25:46.290Z,74.20
2018-01-03T14:28:14.571Z,73.80
2018-01-03T14:30:42.903Z,73.00
2018-01-03T14:33:10.458Z,73.00
2018-01-03T14:35:38.227Z,73.00
2018-01-03T14:38:05.888Z,73.40
2018-01-03T14:40:33.428Z,73.80
2018-01-03T14:43:01.019Z,74.60
2018-01-03T14:45:28.669Z,75.30
2018-01-03T14:47:56.497Z,76.50
2018-01-03T14:50:24.061Z,77.20
2018-01-03T14:52:51.616Z,78.30
2018-01-03T14:55:19.163Z,79.60
2018-01-03T14:57:46.826Z,80.50
2018-01-03T15:00:14.373Z,81.60
2018-01-03T15:02:42.655Z,81.90
2018-01-03T15:05:10.962Z,82.20
2018-01-03T15:07:38.621Z,82.10
2018-01-03T15:10:06.264Z,82.20
2018-01-03T15:12:33.826Z,81.90
2018-01-03T15:15:01.379Z,80.80
2018-01-03T15:17:29.117Z,81.60
2018-01-03T15:19:57.620Z,82.10
2018-01-03T15:22:25.209Z,82.10
2018-01-03T15:24:52.787Z,82.80
2018-01-03T15:27:20.369Z,84.50
2018-01-03T15:29:48.006Z,84.20
2018-01-03T15:32:15.600Z,84.40
2018-01-03T15:34:43.176Z,84.00
2018-01-03T15:37:10.692Z,84.20
2018-01-03T15:39:38.260Z,83.30
2018-01-03T15:42:05.779Z,83.20
2018-01-03T15:44:33.293Z,82.30
2018-01-03T15:47:00.835Z,81.60
2018-01-03T15:49:28.368Z,80.80
2018-01-03T15:51:56.698Z,79.50
2018-01-03T15:54:25.025Z,78.30
2018-01-03T15:56:52.565Z,78.30
2018-01-03T15:59:20.107Z,77.50
2018-01-03T16:01:47.702Z,77.70
2018-01-03T16:04:15.980Z,77.30
2018-01-03T16:06:43.533Z,77.30
2018-01-03T16:09:11.111Z,77.30
2018-01-03T16:11:38.626Z,77.50
2018-01-03T16:14:06.585Z,78.10
2018-01-03T16:16:34.162Z,77.70
2018-01-03T16:19:01.698Z,77.70
2018-01-03T16:21:29.997Z,78.60
2018-01-03T16:23:57.681Z,78.60
2018-01-03T16:26:25.398Z,78.30
2018-01-03T16:28:52.942Z,78.60
2018-01-03T16:31:20.498Z,77.90
2018-01-03T16:33:48.899Z,78.00
2018-01-03T16:36:17.192Z,78.00
2018-01-03T16:38:44.819Z,77.90
2018-01-03T16:41:12.348Z,78.00
2018-01-03T16:43:39.889Z,77.60
2018-01-03T16:46:07.502Z,77.20
2018-01-03T16:48:35.088Z,76.50
2018-01-03T16:51:02.667Z,76.10
2018-01-03T16:53:30.176Z,76.20
2018-01-03T16:55:57.748Z,75.70
2018-01-03T16:58:25.261Z,75.60
2018-01-03T17:00:52.825Z,76.60
2018-01-03T17:03:20.371Z,75.90
2018-01-03T17:05:47.921Z,76.00
2018-01-03T17:08:15.454Z,75.50
2018-01-03T17:10:43.065Z,75.70
2018-01-03T17:13:10.590Z,75.90
2018-01-03T17:15:38.147Z,76.00
2018-01-03T17:18:05.678Z,76.30
2018-01-03T17:20:33.974Z,76.20
2018-01-03T17:23:01.540Z,76.70
2018-01-03T17:25:29.068Z,76.30
2018-01-03T17:27:57.411Z,76.40
2018-01-03T17:30:24.987Z,76.40
2018-01-03T17:32:52.544Z,75.90
2018-01-03T17:35:20.062Z,76.70
2018-01-03T17:37:47.631Z,76.80
2018-01-03T17:40:15.179Z,77.40
2018-01-03T17:42:42.742Z,76.70
2018-01-03T17:45:10.312Z,77.30
2018-01-03T17:47:37.922Z,77.70
2018-01-03T17:50:06.384Z,77.20
2018-01-03T17:52:33.915Z,77.20
2018-01-03T17:55:01.693Z,77.90
2018-01-03T17:57:29.248Z,78.60
2018-01-03T17:59:56.800Z,78.00
2018-01-03T18:02:24.355Z,77.80
2018-01-03T18:04:51.917Z,78.00
2018-01-03T18:07:19.906Z,78.00
2018-01-03T18:09:47.616Z,78.50
2018-01-03T18:12:15.192Z,78.30
2018-01-03T18:14:42.751Z,77.70
2018-01-03T18:17:10.281Z,78.30
2018-01-03T18:19:38.602Z,78.10
2018-01-03T18:22:06.175Z,78.00
2018-01-03T18:24:33.688Z,78.60
2018-01-03T18:27:01.258Z,78.70
2018-01-03T18:29:28.815Z,78.70
2018-01-03T18:31:56.593Z,79.90
2018-01-03T18:34:24.517Z,79.60
2018-01-03T18:36:53.033Z,79.70
2018-01-03T18:39:20.604Z,79.70
2018-01-03T18:41:48.143Z,79.60
2018-01-03T18:44:15.670Z,80.00
2018-01-03T18:46:43.424Z,80.30
2018-01-03T18:49:10.962Z,80.10
2018-01-03T18:51:38.500Z,79.80
2018-01-03T18:54:06.180Z,79.80
2018-01-03T18:56:33.881Z,79.70
2018-01-03T18:59:02.234Z,79.40
2018-01-03T19:01:29.798Z,79.40
2018-01-03T19:03:57.656Z,79.50
2018-01-03T19:06:25.211Z,79.80
2018-01-03T19:08:52.922Z,79.80
2018-01-03T19:11:21.364Z,79.90
2018-01-03T19:13:49.074Z,79.80
2018-01-03T19:16:16.658Z,80.00
2018-01-03T19:18:44.208Z,79.80
2018-01-03T19:21:11.738Z,80.40
2018-01-03T19:23:40.043Z,80.60
2018-01-03T19:26:07.719Z,80.10
2018-01-03T19:28:35.267Z,80.20
2018-01-03T19:31:02.882Z,80.10
2018-01-03T19:33:30.394Z,80.00
2018-01-03T19:35:57.933Z,80.20
2018-01-03T19:38:25.487Z,80.10
2018-01-03T19:40:53.079Z,80.10
2018-01-03T19:43:20.643Z,79.90
2018-01-03T19:45:49.921Z,80.00
2018-01-03T19:48:17.617Z,80.00
2018-01-03T19:50:45.246Z,80.20
2018-01-03T19:53:12.840Z,80.60
2018-01-03T19:55:40.394Z,80.80
2018-01-03T19:58:07.954Z,80.70
2018-01-03T20:00:35.549Z,81.10
2018-01-03T20:03:03.950Z,81.00
2018-01-03T20:05:31.520Z,81.00
2018-01-03T20:07:59.095Z,82.90
2018-01-03T20:10:26.624Z,83.70
2018-01-03T20:12:54.363Z,82.40
2018-01-03T20:15:21.891Z,83.20
2018-01-03T20:17:49.487Z,84.00
2018-01-03T20:20:17.011Z,83.60
2018-01-03T20:22:44.705Z,83.50
2018-01-03T20:25:13.085Z,83.10
2018-01-03T20:27:41.387Z,82.90
2018-01-03T20:30:08.968Z,82.90
2018-01-03T20:32:37.024Z,83.20
2018-01-03T20:35:04.667Z,83.40
2018-01-03T20:37:33.065Z,83.30
2018-01-03T20:40:00.596Z,83.30
2018-01-03T20:42:28.872Z,82.80
2018-01-03T20:44:57.278Z,82.90
2018-01-03T20:47:25.053Z,82.90
2018-01-03T20:49:52.713Z,82.40
2018-01-03T20:52:20.297Z,82.50
2018-01-03T20:54:47.966Z,82.50
2018-01-03T20:57:15.514Z,82.10
2018-01-03T20:59:43.130Z,81.80
2018-01-03T21:02:11.512Z,82.10
2018-01-03T21:04:52.095Z,82.00
2018-01-03T21:07:20.471Z,81.90
2018-01-03T21:09:47.996Z,81.70
2018-01-03T21:12:15.790Z,81.70
2018-01-03T21:14:43.365Z,81.70
2018-01-03T21:17:10.899Z,81.70
2018-01-03T21:19:39.420Z,81.80
2018-01-03T21:22:08.723Z,82.10
2018-01-03T21:24:36.560Z,82.70
2018-01-03T21:27:04.092Z,82.90
2018-01-03T21:29:31.681Z,82.90
2018-01-03T21:31:59.341Z,86.60
2018-01-03T21:34:27.552Z,88.30
2018-01-03T21:36:55.230Z,88.40
2018-01-03T21:39:22.839Z,88.70
2018-01-03T21:41:50.380Z,87.90
2018-01-03T21:44:18.667Z,86.90
2018-01-03T21:46:46.213Z,86.90
2018-01-03T21:49:13.762Z,85.90
2018-01-03T21:51:41.688Z,85.40
2018-01-03T21:54:16.736Z,84.90
2018-01-03T21:56:45.257Z,85.10
2018-01-03T21:59:12.877Z,84.70
2018-01-03T22:01:40.428Z,84.20
2018-01-03T22:04:08.037Z,84.20
2018-01-03T22:06:35.596Z,84.40
2018-01-03T22:09:04.009Z,85.50
2018-01-03T22:11:40.196Z,86.10
2018-01-03T22:14:08.171Z,86.10
2018-01-03T22:16:35.774Z,87.40
2018-01-03T22:19:04.115Z,88.70
2018-01-03T22:21:31.720Z,88.60
2018-01-03T22:23:59.247Z,90.00
2018-01-03T22:26:26.780Z,90.20
2018-01-03T22:28:56.389Z,90.20
2018-01-03T22:31:23.938Z,89.80
2018-01-03T22:33:51.512Z,90.00
2018-01-03T22:36:20.798Z,90.00
2018-01-03T22:38:50.163Z,89.90
2018-01-03T22:41:17.800Z,89.40
2018-01-03T22:43:46.699Z,89.20
2018-01-03T22:49:19.165Z,88.50
2018-01-03T22:55:03.637Z,88.10
2018-01-03T22:57:31.297Z,87.10
2018-01-03T22:59:58.911Z,87.30
2018-01-03T23:02:26.521Z,87.50
2018-01-03T23:04:54.155Z,87.50
2018-01-03T23:07:21.691Z,87.40
2018-01-03T23:09:49.306Z,87.50
2018-01-03T23:12:16.888Z,87.40
2018-01-03T23:14:57.533Z,87.10
2018-01-03T23:17:26.095Z,86.80
2018-01-03T23:19:53.679Z,87.00
2018-01-03T23:22:21.513Z,86.60
2018-01-03T23:24:50.380Z,86.40
2018-01-03T23:27:18.053Z,86.30
2018-01-03T23:29:45.650Z,86.30
2018-01-03T23:41:28.221Z,86.70
2018-01-03T23:43:55.835Z,86.30
2018-01-03T23:46:23.403Z,86.50
2018-01-03T23:48:50.915Z,86.60
2018-01-03T23:51:18.464Z,86.00
2018-01-03T23:53:46.002Z,86.10
2018-01-03T23:56:13.582Z,86.30
2018-01-03T23:58:48.271Z,86.30
